Sublette, Missouri
Current Conditions -  °F | °C
As of 7:55 AM on Monday 20 Oct 2014 (Local Time) from KIRK Reporting Station
Clear Clear  
Wind Chill: 50°   Ceiling: Unl
Heat Index: 50°   Visibility: 10mi
Dew Point: 47°   Wind: 6mph
Humidity: 89%   Direction: 320°NW
Pressure: 29.99"   Gusts: NA
Location:  40.3435°N, 92.5364°W
Report Text: KIRK 201255Z AUTO 32005KT 10SM CLR 10/08 A2999 RMK AO2 SLP160 T01000083
Loading
Personal Weather Stations






























Interactive Weather Map
Tropical Storm Tracking
New forecast layout! Learn more

10-Day Weather Forecast

Advertisements
Track Severe Weather on mobile